LEVD

Valladolid Airport

Valladolid, Spain
TAF LEVD 181700Z 1818/1918 20012KT 9999 SCT045 NSC TX10/1915Z TNM03/1906Z TEMPO 1818/1821 3000 DZRA BR BKN014 PROB40 TEMPO 1823/1906 1200 BCFG BKN003
Issued Valid From Valid To
Dec-18 @ 17:00 UTC
(6 hours ago)
Dec-18 @ 18:00 UTC
(5 hours ago)
Dec-19 @ 18:00 UTC
(in 19 hours)
Dec-18 @ 18:00 to Dec-19 @ 18:00
TAF LEVD 181700Z 1818/1918 20012KT 9999 SCT045 NSC TX10/1915Z TNM03/1906Z
Wind Visibility Clouds
200° at 12 knots 10,000+ meters
  • No significant clouds
  • Scattered at 4,500' AGL
Expired Click to View Dec-18 @ 18:00 to Dec-18 @ 21:00
TEMPO 1818/1821 3000 DZRA BR BKN014
Visibility Clouds Conditions
2,993 meters
  • Broken at 1,400' AGL
  • Drizzle
  • Rain
  • Mist
Temporary  (Probability 40%) Dec-18 @ 23:00 to Dec-19 @ 06:00
PROB40 TEMPO 1823/1906 1200 BCFG BKN003
Visibility Clouds Conditions
1,207 meters
  • Broken at 300' AGL
  • Patches of
  • Fog
TAF LEVD 181700Z 1818/1918 20012KT 9999 SCT045 NSC TX10/1915Z TNM03/1906Z TEMPO 1818/1821 3000 DZRA BR BKN014 PROB40 TEMPO 1823/1906 1200 BCFG BKN003
Issued Dec-18 @ 17:00 UTC
(6 hours ago)
Valid From Dec-18 @ 18:00 UTC
(5 hours ago)
Valid To Dec-19 @ 18:00 UTC
(in 19 hours)
Dec-18 @ 18:00 - Dec-19 @ 18:00
Wind Visibility
200° at 12 knots 10,000+ meters
Clouds
  • No significant clouds
  • Scattered at 4,500' AGL
Dec-18 @ 18:00 - Dec-18 @ 21:00
Clouds
  • Broken at 1,400' AGL
Conditions
  • Drizzle
  • Rain
  • Mist
Probability 40% Temporary Dec-18 @ 23:00 - Dec-19 @ 06:00
Clouds
  • Broken at 300' AGL
Conditions
  • Patches of
  • Fog